Time;durP1;ratioP1;P1;durP2;ratioP2;P2;SDS_P1;SDS_P2;PMS_P1;PMS_P2;Temp;Humidity;BMP_temperature;BMP_pressure;BME280_temperature;BME280_humidity;BME280_pressure;Samples;Min_cycle;Max_cycle;Signal;HPM_P1;HPM_P2
2024/01/28 00:01:08;;;;;;;3.05;2.58;;;;;;;3.33;56.21;95877.69;5098766;28;20203;-77
2024/01/28 00:03:36;;;;;;;2.95;2.30;;;;;;;3.30;55.83;95880.97;5116362;28;20183;-77
2024/01/28 00:06:03;;;;;;;3.63;2.25;;;;;;;3.31;56.08;95881.81;5098388;28;20206;-77
2024/01/28 00:08:30;;;;;;;2.97;2.50;;;;;;;3.30;56.22;95886.44;5116151;28;20184;-77
2024/01/28 00:10:59;;;;;;;2.72;2.45;;;;;;;3.30;55.87;95891.91;5115816;28;20640;-77
2024/01/28 00:13:28;;;;;;;3.60;2.50;;;;;;;3.28;56.13;95888.66;5115758;28;20191;-77
2024/01/28 00:15:56;;;;;;;2.88;2.20;;;;;;;3.28;56.35;95885.94;5115525;28;20212;-77
2024/01/28 00:18:24;;;;;;;2.50;2.05;;;;;;;3.29;56.44;95886.75;5098138;28;20249;-76
2024/01/28 00:20:51;;;;;;;3.25;2.40;;;;;;;3.30;56.10;95883.72;5115660;28;20245;-76
2024/01/28 00:23:20;;;;;;;3.88;2.50;;;;;;;3.30;55.98;95886.44;5116201;28;20200;-77
2024/01/28 00:25:47;;;;;;;3.47;2.60;;;;;;;3.30;56.60;95894.63;5098188;28;20191;-77
2024/01/28 00:28:15;;;;;;;2.78;2.28;;;;;;;3.30;56.58;95902.78;5115796;28;20191;-77
2024/01/28 00:30:42;;;;;;;2.95;2.47;;;;;;;3.30;57.14;95905.53;5116623;28;20263;-77
2024/01/28 00:33:10;;;;;;;2.83;2.58;;;;;;;3.30;57.08;95910.97;5097691;28;20217;-77
2024/01/28 00:35:38;;;;;;;3.13;2.38;;;;;;;3.33;56.35;95907.69;5115545;28;20618;-77
2024/01/28 00:38:05;;;;;;;3.78;2.40;;;;;;;3.33;56.63;95904.97;5115538;28;20661;-77
2024/01/28 00:40:32;;;;;;;2.90;2.42;;;;;;;3.33;56.40;95906.88;5115925;28;20179;-77
2024/01/28 00:42:59;;;;;;;2.78;2.47;;;;;;;3.31;56.89;95911.81;5098594;28;20231;-77
2024/01/28 00:45:28;;;;;;;2.65;2.22;;;;;;;3.29;56.87;95909.34;5115790;28;20180;-77
2024/01/28 00:47:56;;;;;;;3.63;2.47;;;;;;;3.29;56.38;95908.56;5098583;28;20233;-77
2024/01/28 00:50:25;;;;;;;2.75;2.50;;;;;;;3.26;57.12;95906.38;5115979;28;20252;-77
2024/01/28 00:52:52;;;;;;;3.35;2.30;;;;;;;3.21;57.70;95898.25;5115701;28;20176;-77
2024/01/28 00:55:19;;;;;;;3.35;2.55;;;;;;;3.23;57.75;95896.06;5115883;28;20199;-77
2024/01/28 00:57:46;;;;;;;2.85;2.53;;;;;;;3.23;57.57;95909.69;5115251;28;20237;-77
2024/01/28 01:00:15;;;;;;;4.82;2.78;;;;;;;3.23;58.01;95910.53;5115462;28;20184;-77
2024/01/28 01:02:43;;;;;;;2.72;2.50;;;;;;;3.23;57.81;95913.25;5115396;28;20207;-77
2024/01/28 01:05:12;;;;;;;3.90;2.50;;;;;;;3.16;57.52;95920.94;5098166;28;20225;-77
2024/01/28 01:07:38;;;;;;;3.70;2.80;;;;;;;3.18;58.24;95931.53;5098533;28;20239;-77
2024/01/28 01:10:08;;;;;;;3.38;2.70;;;;;;;3.17;57.67;95932.66;5097835;28;20196;-77
2024/01/28 01:12:35;;;;;;;2.88;2.58;;;;;;;3.15;58.15;95924.75;5098386;28;20534;-77
2024/01/28 01:15:03;;;;;;;3.13;2.60;;;;;;;3.12;58.42;95917.97;5115207;28;20180;-77
2024/01/28 01:17:30;;;;;;;3.35;2.72;;;;;;;3.11;58.16;95921.78;5097675;28;20208;-77
2024/01/28 01:19:58;;;;;;;2.85;2.17;;;;;;;3.13;58.96;95916.06;5114484;28;20196;-77
2024/01/28 01:22:25;;;;;;;3.15;2.70;;;;;;;3.15;58.48;95919.28;5115455;28;20210;-77
2024/01/28 01:24:52;;;;;;;3.08;2.60;;;;;;;3.16;58.43;95923.66;5115955;28;20218;-77
2024/01/28 01:27:19;;;;;;;3.08;2.55;;;;;;;3.18;58.33;95920.66;5097377;28;20192;-77
2024/01/28 01:29:46;;;;;;;3.17;2.53;;;;;;;3.16;58.51;95923.66;5093763;28;20277;-77
2024/01/28 01:32:16;;;;;;;2.90;2.50;;;;;;;3.17;59.04;95914.38;5094933;28;20193;-77
2024/01/28 01:34:42;;;;;;;3.97;2.65;;;;;;;3.15;58.19;95913.84;5094670;28;20192;-77
2024/01/28 01:37:11;;;;;;;3.30;2.60;;;;;;;3.12;58.56;95922.59;5094013;28;20214;-77
2024/01/28 01:39:38;;;;;;;3.17;2.78;;;;;;;3.11;58.72;95910.88;5096616;28;20188;-77
2024/01/28 01:42:05;;;;;;;3.03;2.70;;;;;;;3.09;59.05;95915.00;5098295;28;20188;-77
2024/01/28 01:44:33;;;;;;;3.13;2.60;;;;;;;3.05;58.72;95916.63;5098245;28;20605;-77
2024/01/28 01:47:00;;;;;;;3.38;2.90;;;;;;;3.05;58.89;95922.94;5097433;28;20224;-77
2024/01/28 01:49:27;;;;;;;2.97;2.47;;;;;;;3.05;58.75;95914.75;5097566;28;20249;-77
2024/01/28 01:51:54;;;;;;;3.25;2.80;;;;;;;3.07;58.86;95917.19;5097887;28;20241;-77
2024/01/28 01:54:23;;;;;;;3.72;3.00;;;;;;;3.06;59.37;95921.81;5098719;28;20188;-77
2024/01/28 01:56:50;;;;;;;3.28;2.83;;;;;;;3.03;58.82;95919.66;5098617;28;20212;-77
2024/01/28 01:59:20;;;;;;;3.47;2.80;;;;;;;3.03;58.84;95922.38;5098233;28;20253;-77
2024/01/28 02:01:48;;;;;;;3.60;3.08;;;;;;;3.02;58.81;95926.22;5098214;28;20200;-77
2024/01/28 02:04:15;;;;;;;4.05;2.97;;;;;;;3.03;58.40;95919.66;5097495;28;20278;-77
2024/01/28 02:06:42;;;;;;;2.93;2.60;;;;;;;3.03;58.93;95925.13;5097490;28;20250;-77
2024/01/28 02:09:09;;;;;;;3.72;2.72;;;;;;;3.02;59.13;95926.22;5097762;28;20234;-77
2024/01/28 02:11:37;;;;;;;3.50;2.58;;;;;;;2.99;59.20;95926.78;5097380;28;20228;-77
2024/01/28 02:14:04;;;;;;;3.40;2.95;;;;;;;2.99;58.42;95934.16;5098143;28;20189;-77
2024/01/28 02:16:31;;;;;;;3.00;2.40;;;;;;;3.00;58.84;95938.50;5096655;28;20281;-77
2024/01/28 02:18:58;;;;;;;3.30;2.50;;;;;;;2.98;59.21;95938.78;5097498;28;20596;-77
2024/01/28 02:21:26;;;;;;;3.35;2.80;;;;;;;2.93;58.93;95935.28;5097862;28;20188;-76
2024/01/28 02:23:55;;;;;;;3.25;2.60;;;;;;;2.93;59.27;95940.72;5098105;28;20198;-77
2024/01/28 02:26:22;;;;;;;3.05;2.75;;;;;;;2.87;59.07;95939.97;5096672;28;20210;-77
2024/01/28 02:28:49;;;;;;;3.20;2.90;;;;;;;2.85;59.60;95942.94;5099080;28;20234;-77
2024/01/28 02:31:17;;;;;;;4.28;3.20;;;;;;;2.86;59.03;95941.84;5117590;28;20630;-77
2024/01/28 02:33:44;;;;;;;3.17;2.70;;;;;;;2.84;59.46;95946.78;5118235;28;20188;-77
2024/01/28 02:36:12;;;;;;;3.33;2.80;;;;;;;2.82;59.45;95943.50;5117111;28;20203;-77
2024/01/28 02:38:38;;;;;;;3.00;2.70;;;;;;;2.81;59.72;95950.06;5117610;28;20176;-77
2024/01/28 02:41:07;;;;;;;3.55;2.90;;;;;;;2.83;59.51;95956.06;5099802;28;20608;-77
2024/01/28 02:43:34;;;;;;;3.03;2.72;;;;;;;2.82;59.36;95953.59;5100542;28;20249;-77
2024/01/28 02:46:01;;;;;;;3.00;2.70;;;;;;;2.82;59.84;95956.31;5099752;28;20206;-77
2024/01/28 02:48:28;;;;;;;4.07;2.70;;;;;;;2.84;59.33;95963.13;5117520;28;20542;-77
2024/01/28 02:50:55;;;;;;;3.20;2.88;;;;;;;2.82;59.56;95959.84;5117329;28;20195;-77
2024/01/28 02:53:22;;;;;;;3.53;2.78;;;;;;;2.82;59.46;95961.78;5117476;28;20191;-77
2024/01/28 02:55:50;;;;;;;3.10;2.60;;;;;;;2.83;59.27;95964.22;5099609;28;20196;-77
2024/01/28 02:58:19;;;;;;;3.60;2.97;;;;;;;2.84;59.09;95962.31;5099822;28;20215;-77
2024/01/28 03:00:46;;;;;;;4.25;3.00;;;;;;;2.80;59.83;95962.06;5099832;28;20230;-77
2024/01/28 03:03:13;;;;;;;4.50;2.85;;;;;;;2.77;59.80;95975.44;5099185;28;20612;-77
2024/01/28 03:05:40;;;;;;;3.08;2.55;;;;;;;2.79;59.94;95968.59;5099114;28;20229;-77
2024/01/28 03:08:07;;;;;;;3.50;2.40;;;;;;;2.79;59.43;95975.94;5099955;28;20200;-77
2024/01/28 03:10:34;;;;;;;2.95;2.65;;;;;;;2.71;59.82;95980.09;5117555;28;20176;-77
2024/01/28 03:13:01;;;;;;;3.90;2.70;;;;;;;2.71;59.92;95982.00;5117108;28;20279;-77
2024/01/28 03:15:30;;;;;;;4.32;3.00;;;;;;;2.70;59.70;95983.91;5099999;28;20267;-77
2024/01/28 03:17:57;;;;;;;3.92;2.88;;;;;;;2.69;60.23;95984.19;5116892;28;20289;-77
2024/01/28 03:20:25;;;;;;;4.07;3.10;;;;;;;2.68;60.03;95990.72;5099292;28;20248;-77
2024/01/28 03:22:52;;;;;;;2.97;2.75;;;;;;;2.65;60.04;95998.38;5117044;28;20260;-77
2024/01/28 03:25:19;;;;;;;4.85;2.92;;;;;;;2.67;60.03;95991.84;5099234;28;20649;-77
2024/01/28 03:27:46;;;;;;;3.40;2.47;;;;;;;2.65;60.26;95995.66;5099165;28;20257;-77
2024/01/28 03:30:15;;;;;;;4.00;3.05;;;;;;;2.63;59.98;95992.38;5095285;28;20236;-77
2024/01/28 03:32:43;;;;;;;4.28;2.90;;;;;;;2.63;60.29;95992.38;5095574;28;20207;-77
2024/01/28 03:35:10;;;;;;;3.25;2.95;;;;;;;2.62;60.50;95990.75;5095955;28;20181;-77
2024/01/28 03:37:37;;;;;;;4.25;2.90;;;;;;;2.61;60.87;95993.75;5095852;28;20208;-77
2024/01/28 03:40:06;;;;;;;3.25;2.70;;;;;;;2.61;61.13;95994.59;5096196;28;20203;-77
2024/01/28 03:42:33;;;;;;;4.32;2.70;;;;;;;2.60;61.02;95995.66;5096161;28;20184;-77
2024/01/28 03:45:00;;;;;;;3.80;2.70;;;;;;;2.57;61.20;95992.69;5112456;28;20608;-77
2024/01/28 03:47:27;;;;;;;2.60;2.40;;;;;;;2.56;60.95;95994.59;5095075;28;20241;-77
2024/01/28 03:49:55;;;;;;;2.97;2.60;;;;;;;2.57;60.57;95989.97;5095946;28;20201;-77
2024/01/28 03:52:22;;;;;;;3.42;2.67;;;;;;;2.54;60.59;95999.53;5096087;28;20191;-77
2024/01/28 03:54:50;;;;;;;3.88;2.70;;;;;;;2.50;61.33;96001.16;5095481;28;20189;-77
2024/01/28 03:57:17;;;;;;;3.90;2.83;;;;;;;2.47;61.22;96011.78;5096076;28;20295;-77
2024/01/28 03:59:44;;;;;;;3.75;2.60;;;;;;;2.42;61.61;96010.72;5095758;28;20180;-77
2024/01/28 04:02:11;;;;;;;3.42;2.85;;;;;;;2.37;61.80;96005.31;5095109;28;20203;-77
2024/01/28 04:04:38;;;;;;;3.78;2.50;;;;;;;2.34;61.91;96005.84;5094615;28;20199;-77
2024/01/28 04:07:06;;;;;;;4.35;3.25;;;;;;;2.31;61.87;96016.47;5094533;28;20639;-77
2024/01/28 04:12:18;;;;;;;3.40;2.70;;;;;;;2.26;62.04;96035.56;5095655;28;20183;-77
2024/01/28 04:14:45;;;;;;;3.58;3.20;;;;;;;2.25;62.09;96031.19;5095414;28;20189;-77
2024/01/28 04:17:12;;;;;;;3.63;2.95;;;;;;;2.21;61.82;96033.66;5095218;28;20269;-77
2024/01/28 04:19:39;;;;;;;4.07;2.97;;;;;;;2.17;61.71;96038.81;5095355;28;20249;-77
2024/01/28 04:22:09;;;;;;;4.00;3.03;;;;;;;2.11;62.25;96034.50;5094820;28;20192;-76
2024/01/28 04:24:37;;;;;;;3.20;2.78;;;;;;;2.09;62.81;96039.41;5095220;28;20523;-76
2024/01/28 04:27:04;;;;;;;4.47;3.13;;;;;;;2.11;61.93;96041.88;5094826;28;20199;-77
2024/01/28 04:29:31;;;;;;;4.18;3.20;;;;;;;2.09;61.79;96038.59;5111771;28;20239;-77
2024/01/28 04:31:58;;;;;;;4.13;3.20;;;;;;;2.03;62.21;96051.38;5094509;28;20204;-77
2024/01/28 04:34:25;;;;;;;3.72;2.90;;;;;;;1.95;62.46;96049.22;5095339;28;20173;-77
2024/01/28 04:36:52;;;;;;;4.78;3.55;;;;;;;1.92;63.38;96064.22;5095464;28;20220;-77
2024/01/28 04:39:21;;;;;;;3.47;3.00;;;;;;;1.92;63.03;96060.66;5094865;28;20196;-77
2024/01/28 04:41:48;;;;;;;3.97;3.15;;;;;;;1.90;63.13;96057.41;5095591;28;20199;-77
2024/01/28 04:44:15;;;;;;;4.80;3.35;;;;;;;1.93;63.14;96067.75;5094156;28;20196;-77
2024/01/28 04:46:44;;;;;;;4.15;3.50;;;;;;;1.95;62.92;96062.81;5094982;28;20192;-76
2024/01/28 04:49:11;;;;;;;5.72;3.95;;;;;;;1.96;62.93;96063.63;5095012;28;20193;-76
2024/01/28 04:51:38;;;;;;;4.63;3.50;;;;;;;1.93;62.94;96065.84;5094190;28;20193;-76
2024/01/28 04:54:05;;;;;;;3.88;3.47;;;;;;;1.90;62.83;96052.78;5095287;28;20169;-77
2024/01/28 04:56:34;;;;;;;5.43;3.72;;;;;;;1.85;62.97;96063.66;5095184;28;20180;-77
2024/01/28 04:59:03;;;;;;;4.60;3.60;;;;;;;1.81;63.32;96059.84;5094779;28;20216;-77
2024/01/28 05:01:30;;;;;;;5.53;4.07;;;;;;;1.78;63.40;96051.41;5094187;28;20192;-77
2024/01/28 05:03:57;;;;;;;4.47;3.90;;;;;;;1.76;63.47;96056.31;5094860;28;20188;-77
2024/01/28 05:06:24;;;;;;;4.05;3.65;;;;;;;1.74;63.45;96064.72;5111448;28;20197;-77
2024/01/28 05:08:51;;;;;;;5.07;3.67;;;;;;;1.74;63.11;96066.63;5095108;28;20206;-76
2024/01/28 05:11:19;;;;;;;4.85;4.28;;;;;;;1.73;63.20;96076.72;5094800;28;20188;-76
2024/01/28 05:13:47;;;;;;;3.88;3.33;;;;;;;1.69;63.15;96062.84;5096413;28;20203;-76
2024/01/28 05:16:15;;;;;;;4.50;3.53;;;;;;;1.72;63.01;96066.94;5098934;28;20246;-77
2024/01/28 05:18:42;;;;;;;4.18;3.58;;;;;;;1.69;63.00;96064.75;5098837;28;20243;-76
2024/01/28 05:21:09;;;;;;;4.45;4.05;;;;;;;1.68;63.16;96066.66;5098814;28;20200;-77
2024/01/28 05:23:36;;;;;;;4.43;4.00;;;;;;;1.66;62.78;96068.00;5098005;28;20207;-77
2024/01/28 05:26:03;;;;;;;4.35;3.95;;;;;;;1.66;62.94;96071.53;5097613;28;20644;-77
2024/01/28 05:28:30;;;;;;;4.72;3.83;;;;;;;1.65;62.80;96077.25;5098201;28;20251;-78
2024/01/28 05:30:58;;;;;;;4.05;3.40;;;;;;;1.65;62.86;96096.31;5098703;28;20181;-76
2024/01/28 05:33:25;;;;;;;4.25;3.30;;;;;;;1.64;62.85;96087.31;5081396;28;20193;-76
2024/01/28 05:35:52;;;;;;;5.40;3.35;;;;;;;1.63;62.95;96101.19;5081094;28;20197;-77
2024/01/28 05:38:19;;;;;;;4.35;2.63;;;;;;;1.61;62.60;96100.66;5080733;28;20655;-77
2024/01/28 05:40:46;;;;;;;3.00;2.65;;;;;;;1.60;62.66;96099.03;5081338;28;20189;-77
2024/01/28 05:43:13;;;;;;;3.33;2.88;;;;;;;1.60;62.73;96096.31;5080903;28;20200;-77
2024/01/28 05:45:41;;;;;;;3.25;2.95;;;;;;;1.60;62.41;96105.28;5081252;28;20242;-77
2024/01/28 05:48:09;;;;;;;3.45;3.10;;;;;;;1.62;62.54;96111.25;5081181;28;20193;-77
2024/01/28 05:50:36;;;;;;;3.22;2.80;;;;;;;1.62;62.58;96111.25;5080563;28;20197;-77
2024/01/28 05:53:04;;;;;;;4.45;3.22;;;;;;;1.62;62.92;96116.69;5080815;28;20192;-77
2024/01/28 05:55:32;;;;;;;3.97;3.40;;;;;;;1.62;62.91;96124.03;5097881;28;20245;-77
2024/01/28 05:57:59;;;;;;;4.55;3.50;;;;;;;1.61;63.10;96120.50;5080380;28;20305;-77
2024/01/28 06:00:26;;;;;;;4.38;3.38;;;;;;;1.61;62.94;96125.13;5081145;28;20193;-77
2024/01/28 06:02:53;;;;;;;4.00;3.20;;;;;;;1.61;63.06;96116.97;5097931;28;20173;-77
2024/01/28 06:05:21;;;;;;;4.20;3.40;;;;;;;1.62;62.95;96130.28;5080024;28;20203;-77
2024/01/28 06:07:49;;;;;;;4.07;3.50;;;;;;;1.64;62.76;96130.03;5080518;28;20196;-78
2024/01/28 06:10:16;;;;;;;5.00;3.78;;;;;;;1.65;63.13;96123.50;5080271;28;20196;-76
2024/01/28 06:12:43;;;;;;;4.35;3.63;;;;;;;1.63;63.09;96131.94;5080415;28;20192;-76
2024/01/28 06:15:11;;;;;;;4.97;4.47;;;;;;;1.68;63.16;96142.00;5080502;28;20220;-76
2024/01/28 06:17:38;;;;;;;5.07;4.47;;;;;;;1.71;63.00;96143.34;5080264;28;20207;-76
2024/01/28 06:20:06;;;;;;;6.00;4.53;;;;;;;1.77;63.42;96145.78;5080563;28;20208;-76
2024/01/28 06:22:36;;;;;;;5.10;3.88;;;;;;;1.82;63.26;96145.00;5080010;28;20211;-77
2024/01/28 06:25:03;;;;;;;4.90;3.92;;;;;;;1.84;62.98;96138.19;5079613;28;20211;-77
2024/01/28 06:27:30;;;;;;;4.22;3.58;;;;;;;1.85;62.61;96144.44;5079859;28;20211;-76
2024/01/28 06:29:57;;;;;;;5.68;3.50;;;;;;;1.86;62.73;96146.09;5088350;28;20293;-76
2024/01/28 06:32:24;;;;;;;4.28;3.83;;;;;;;1.88;62.60;96149.34;5096918;28;20189;-76
2024/01/28 06:34:52;;;;;;;4.97;4.47;;;;;;;1.84;62.98;96143.63;5096811;28;20227;-77
2024/01/28 06:37:19;;;;;;;4.88;4.35;;;;;;;1.86;62.96;96151.53;5097007;28;20283;-76
2024/01/28 06:39:51;;;;;;;4.40;4.00;;;;;;;1.80;62.84;96150.69;5096302;28;20261;-76
2024/01/28 06:42:18;;;;;;;4.28;3.88;;;;;;;1.82;63.11;96151.25;5097263;28;20220;-76
2024/01/28 06:44:46;;;;;;;5.63;4.57;;;;;;;1.87;63.44;96153.16;5097177;28;20185;-76
2024/01/28 06:47:13;;;;;;;5.57;4.82;;;;;;;1.90;63.42;96155.34;5096445;28;20527;-76
2024/01/28 06:49:41;;;;;;;5.45;4.40;;;;;;;1.92;63.19;96161.31;5097094;28;20207;-76
2024/01/28 06:52:08;;;;;;;4.05;3.75;;;;;;;1.91;63.06;96174.09;5096447;28;20195;-76
2024/01/28 06:54:35;;;;;;;4.00;3.70;;;;;;;1.93;62.58;96168.41;5096956;28;20186;-76
2024/01/28 06:57:04;;;;;;;4.22;3.88;;;;;;;1.95;62.94;96174.38;5096287;28;20204;-76
2024/01/28 06:59:33;;;;;;;4.57;4.18;;;;;;;1.97;62.74;96169.50;5096219;28;20220;-76
2024/01/28 07:02:00;;;;;;;4.15;3.75;;;;;;;2.01;63.13;96175.22;5096484;28;20605;-76
2024/01/28 07:04:27;;;;;;;3.83;3.53;;;;;;;2.03;62.39;96173.03;5096844;28;20185;-77
2024/01/28 07:06:54;;;;;;;4.68;3.75;;;;;;;2.06;62.90;96178.72;5096405;28;20211;-77
2024/01/28 07:09:22;;;;;;;4.35;3.95;;;;;;;2.06;62.30;96172.47;5096417;28;20188;-76
2024/01/28 07:11:49;;;;;;;4.38;3.92;;;;;;;2.07;62.50;96176.81;5096283;28;20204;-76
2024/01/28 07:14:18;;;;;;;4.72;4.22;;;;;;;2.05;62.15;96179.03;5095806;28;20200;-77
2024/01/28 07:16:45;;;;;;;4.35;3.95;;;;;;;2.06;62.41;96192.34;5095897;28;20199;-77
2024/01/28 07:19:12;;;;;;;3.85;3.47;;;;;;;2.03;62.16;96178.47;5096461;28;20309;-77
2024/01/28 07:21:39;;;;;;;3.88;3.38;;;;;;;1.98;62.41;96181.19;5095172;28;20640;-77
2024/01/28 07:24:08;;;;;;;5.18;3.50;;;;;;;1.99;62.55;96186.34;5096400;28;20237;-78
2024/01/28 07:26:35;;;;;;;5.50;4.00;;;;;;;2.00;62.37;96190.72;5096249;28;20279;-76
2024/01/28 07:29:03;;;;;;;3.88;3.53;;;;;;;2.04;61.99;96185.56;5095047;28;20262;-77
2024/01/28 07:31:32;;;;;;;4.32;3.55;;;;;;;2.09;62.49;96182.81;5095333;28;20636;-77
2024/01/28 07:33:59;;;;;;;3.92;3.42;;;;;;;2.13;62.42;96186.63;5096364;28;20201;-76
2024/01/28 07:36:26;;;;;;;4.30;3.55;;;;;;;2.15;62.29;96188.00;5095178;28;20199;-77
2024/01/28 07:38:53;;;;;;;4.07;3.67;;;;;;;2.18;61.91;96183.94;5095539;28;20663;-77
2024/01/28 07:41:20;;;;;;;3.97;3.63;;;;;;;2.19;62.29;96191.00;5095686;28;20552;-77
2024/01/28 07:43:47;;;;;;;3.75;3.45;;;;;;;2.22;62.07;96198.63;5095857;28;20211;-77
2024/01/28 07:46:14;;;;;;;4.30;3.40;;;;;;;2.27;62.52;96201.34;5095146;28;20636;-76
2024/01/28 07:48:43;;;;;;;4.00;3.63;;;;;;;2.32;62.08;96204.03;5094840;28;20206;-76
2024/01/28 07:51:10;;;;;;;4.35;3.60;;;;;;;2.35;62.36;96189.88;5095332;28;20207;-76
2024/01/28 07:53:37;;;;;;;4.18;3.60;;;;;;;2.39;62.11;96195.59;5094997;28;20188;-77
2024/01/28 07:56:04;;;;;;;4.85;3.95;;;;;;;2.42;62.37;96206.78;5096056;28;20510;-77
2024/01/28 07:58:32;;;;;;;4.15;3.75;;;;;;;2.42;62.00;96200.50;5095350;28;20220;-77
2024/01/28 08:00:59;;;;;;;4.13;3.67;;;;;;;2.49;62.04;96203.78;5095550;28;20212;-76
2024/01/28 08:03:27;;;;;;;4.45;4.00;;;;;;;2.58;61.97;96204.88;5095417;28;20204;-76
2024/01/28 08:05:56;;;;;;;4.00;3.60;;;;;;;2.72;61.34;96202.38;5094772;28;20200;-76
2024/01/28 08:08:23;;;;;;;3.90;3.60;;;;;;;2.80;61.51;96201.84;5095726;28;20173;-76
2024/01/28 08:10:50;;;;;;;4.30;3.90;;;;;;;2.82;61.13;96194.19;5095712;28;20180;-77
2024/01/28 08:13:19;;;;;;;4.63;4.22;;;;;;;2.88;61.17;96200.44;5095586;28;20214;-76
2024/01/28 08:15:46;;;;;;;4.40;4.00;;;;;;;2.94;61.38;96201.22;5095207;28;20193;-76
2024/01/28 08:18:14;;;;;;;4.43;3.97;;;;;;;2.99;61.31;96209.41;5094846;28;20233;-76
2024/01/28 08:20:41;;;;;;;5.70;4.40;;;;;;;3.01;61.14;96208.03;5095189;28;20254;-76
2024/01/28 08:23:10;;;;;;;5.47;4.97;;;;;;;3.06;61.07;96204.50;5111471;28;20211;-76
2024/01/28 08:25:37;;;;;;;4.43;4.03;;;;;;;3.08;60.99;96202.28;5094367;28;20262;-76
2024/01/28 08:28:05;;;;;;;4.88;4.40;;;;;;;3.10;61.05;96200.09;5095322;28;20535;-76
2024/01/28 08:30:32;;;;;;;5.82;4.40;;;;;;;3.17;61.27;96205.28;5094073;28;20248;-76
2024/01/28 08:33:00;;;;;;;4.60;3.70;;;;;;;3.19;61.02;96205.78;5095429;28;20669;-75
2024/01/28 08:35:27;;;;;;;4.57;3.80;;;;;;;3.18;61.29;96212.34;5094376;28;20203;-75
2024/01/28 08:37:54;;;;;;;4.05;3.70;;;;;;;3.25;61.21;96218.31;5094395;28;20525;-76
2024/01/28 08:40:24;;;;;;;3.75;3.40;;;;;;;3.32;60.75;96218.84;5094235;28;20227;-76
2024/01/28 08:42:51;;;;;;;4.28;3.47;;;;;;;3.34;60.10;96216.63;5094304;28;20545;-76
2024/01/28 08:45:19;;;;;;;3.40;3.10;;;;;;;3.31;60.10;96212.56;5094782;28;20200;-77
2024/01/28 08:47:46;;;;;;;4.55;3.10;;;;;;;3.33;59.84;96221.28;5095854;28;20203;-77
2024/01/28 08:50:13;;;;;;;3.67;3.30;;;;;;;3.37;60.00;96219.63;5098804;28;20195;-76
2024/01/28 08:52:42;;;;;;;4.07;3.53;;;;;;;3.44;59.80;96223.97;5099040;28;20211;-76
2024/01/28 08:55:09;;;;;;;3.72;3.40;;;;;;;3.47;60.26;96223.41;5098774;28;20192;-76
2024/01/28 08:57:39;;;;;;;3.95;3.58;;;;;;;3.57;60.10;96231.56;5099340;28;20253;-76
2024/01/28 09:00:11;;;;;;;3.83;3.42;;;;;;;3.58;59.12;96223.09;5098179;28;20210;-76
2024/01/28 09:02:39;;;;;;;4.55;3.47;;;;;;;3.59;59.17;96224.75;5097988;28;20196;-76
2024/01/28 09:05:07;;;;;;;3.33;3.03;;;;;;;3.65;59.31;96224.69;5098201;28;20200;-76
2024/01/28 09:07:34;;;;;;;3.92;3.47;;;;;;;3.76;59.03;96235.28;5098386;28;20200;-76
2024/01/28 09:10:01;;;;;;;3.47;3.15;;;;;;;3.79;58.74;96233.91;5097909;28;20250;-77
2024/01/28 09:12:28;;;;;;;3.58;3.25;;;;;;;3.95;58.34;96238.16;5099023;28;20188;-76
2024/01/28 09:14:57;;;;;;;4.78;3.30;;;;;;;4.07;58.02;96229.66;5098616;28;20246;-76
2024/01/28 09:17:24;;;;;;;3.47;3.25;;;;;;;4.21;57.46;96238.84;5098279;28;20258;-76
2024/01/28 09:19:51;;;;;;;4.85;3.42;;;;;;;4.30;57.29;96223.47;5115351;28;20644;-76
2024/01/28 09:22:18;;;;;;;3.97;3.30;;;;;;;4.32;56.84;96226.72;5098387;28;20284;-76
2024/01/28 09:24:45;;;;;;;3.88;3.38;;;;;;;4.22;56.99;96218.63;5098799;28;20200;-76
2024/01/28 09:27:12;;;;;;;3.17;2.90;;;;;;;4.21;56.78;96216.16;5098318;28;20188;-76
2024/01/28 09:29:40;;;;;;;3.97;3.17;;;;;;;4.17;56.50;96218.63;5097978;28;20296;-76
2024/01/28 09:32:08;;;;;;;3.55;3.20;;;;;;;4.25;56.69;96219.97;5098600;28;20204;-76
2024/01/28 09:34:35;;;;;;;3.72;3.20;;;;;;;4.29;56.86;96227.31;5098306;28;20177;-76
2024/01/28 09:37:02;;;;;;;3.25;2.92;;;;;;;4.34;56.65;96221.78;5098254;28;20193;-76
2024/01/28 09:39:31;;;;;;;3.60;3.30;;;;;;;4.33;56.52;96219.34;5098495;28;20200;-76
2024/01/28 09:42:09;;;;;;;4.53;3.40;;;;;;;4.40;56.19;96229.97;5097745;28;20208;-76
2024/01/28 09:44:36;;;;;;;4.50;3.17;;;;;;;4.34;56.15;96229.97;5097437;28;20249;-76
2024/01/28 09:47:03;;;;;;;4.45;3.17;;;;;;;4.24;56.31;96226.50;5097139;28;20192;-76
2024/01/28 09:49:39;;;;;;;3.70;3.00;;;;;;;4.21;55.92;96222.44;5097353;28;20196;-76
2024/01/28 09:52:08;;;;;;;3.40;3.10;;;;;;;4.22;56.04;96223.25;5098232;28;20185;-76
2024/01/28 09:54:35;;;;;;;4.60;3.28;;;;;;;4.19;56.24;96219.19;5097365;28;20201;-76
2024/01/28 09:57:03;;;;;;;3.95;3.15;;;;;;;4.15;56.41;96220.03;5098461;28;20195;-76
2024/01/28 09:59:32;;;;;;;4.43;2.95;;;;;;;4.14;56.37;96215.66;5097044;28;20254;-76
2024/01/28 10:01:59;;;;;;;4.85;3.65;;;;;;;4.12;57.07;96220.59;5097165;28;20196;-76
2024/01/28 10:04:27;;;;;;;3.72;3.40;;;;;;;4.16;57.02;96218.94;5097396;28;20203;-76
2024/01/28 10:06:57;;;;;;;3.70;3.17;;;;;;;4.17;56.35;96212.34;5097937;28;20566;-76
2024/01/28 10:09:24;;;;;;;3.70;3.28;;;;;;;4.18;56.62;96224.94;5098187;28;20188;-76
2024/01/28 10:11:52;;;;;;;4.28;3.10;;;;;;;4.15;56.67;96222.78;5097240;28;20196;-76
2024/01/28 10:14:19;;;;;;;3.22;3.00;;;;;;;4.16;56.79;96219.75;5096624;28;20254;-76
2024/01/28 10:16:47;;;;;;;3.20;2.90;;;;;;;4.15;56.98;96217.31;5097839;28;20180;-76
2024/01/28 10:19:14;;;;;;;3.88;3.42;;;;;;;4.14;56.74;96215.66;5096392;28;20751;-76
2024/01/28 10:21:43;;;;;;;3.97;3.53;;;;;;;4.14;56.81;96213.75;5097384;28;20636;-76
2024/01/28 10:24:12;;;;;;;3.85;3.47;;;;;;;4.18;56.88;96217.56;5096481;28;20197;-76
2024/01/28 10:26:39;;;;;;;3.67;3.17;;;;;;;4.19;57.11;96216.44;5097499;28;20177;-76
2024/01/28 10:29:09;;;;;;;4.15;3.60;;;;;;;4.11;58.05;96214.31;5096819;28;20323;-77
2024/01/28 10:31:37;;;;;;;3.97;3.58;;;;;;;4.16;57.29;96214.28;5097199;28;20188;-77
2024/01/28 10:34:04;;;;;;;3.90;3.50;;;;;;;4.13;57.38;96203.91;5096263;28;20609;-76
2024/01/28 10:36:33;;;;;;;5.28;3.72;;;;;;;4.12;57.19;96210.50;5096721;28;20200;-76
2024/01/28 10:39:03;;;;;;;3.90;3.50;;;;;;;4.16;57.45;96205.28;5097322;28;20180;-76
2024/01/28 10:41:33;;;;;;;5.05;4.32;;;;;;;4.17;57.43;96204.97;5097558;28;20188;-76
2024/01/28 10:44:04;;;;;;;6.88;4.45;;;;;;;4.21;57.31;96207.97;5096342;28;20200;-76
2024/01/28 10:46:35;;;;;;;4.10;3.80;;;;;;;4.23;57.26;96211.22;5097261;28;20196;-76
2024/01/28 10:49:05;;;;;;;4.75;4.07;;;;;;;4.26;57.37;96205.22;5096413;28;20196;-76
2024/01/28 10:51:35;;;;;;;4.53;3.75;;;;;;;4.31;56.88;96202.41;5097358;28;20185;-76
2024/01/28 10:54:04;;;;;;;4.13;3.83;;;;;;;4.27;57.46;96206.81;5097095;28;20203;-76
2024/01/28 10:56:33;;;;;;;4.20;3.72;;;;;;;4.23;57.23;96203.03;5096990;28;20201;-76
2024/01/28 10:59:00;;;;;;;4.63;4.22;;;;;;;4.25;57.65;96196.19;5097187;28;20189;-76
2024/01/28 11:01:28;;;;;;;4.95;4.35;;;;;;;4.33;57.39;96202.97;5096018;28;20196;-76
2024/01/28 11:03:55;;;;;;;5.35;4.80;;;;;;;4.40;57.77;96205.38;5095917;28;20200;-76
2024/01/28 11:06:22;;;;;;;5.50;4.07;;;;;;;4.44;57.46;96201.78;5096850;28;20196;-76
2024/01/28 11:08:49;;;;;;;4.38;3.97;;;;;;;4.40;57.21;96203.47;5096602;28;20257;-78
2024/01/28 11:11:17;;;;;;;4.35;3.95;;;;;;;4.30;57.24;96200.81;5094984;28;20192;-76
2024/01/28 11:13:46;;;;;;;6.88;4.25;;;;;;;4.23;57.52;96203.03;5096661;28;20189;-78
2024/01/28 11:16:15;;;;;;;5.17;4.30;;;;;;;4.17;57.83;96204.16;5096600;28;20219;-76
2024/01/28 11:18:42;;;;;;;4.10;3.70;;;;;;;4.13;57.82;96201.19;5095483;28;20196;-76
2024/01/28 11:21:13;;;;;;;5.65;4.60;;;;;;;4.12;58.17;96204.22;5095451;28;20244;-76
2024/01/28 11:23:44;;;;;;;4.93;4.00;;;;;;;4.09;57.50;96194.66;5097044;28;20204;-76
2024/01/28 11:26:16;;;;;;;3.90;3.60;;;;;;;4.04;57.84;96190.06;5096142;28;20177;-76
2024/01/28 11:28:49;;;;;;;4.38;3.97;;;;;;;4.04;58.03;96190.06;5096761;28;20523;-76
2024/01/28 11:31:31;;;;;;;4.50;4.10;;;;;;;4.04;57.74;96187.34;5098820;28;20203;-76
2024/01/28 11:34:09;;;;;;;4.20;3.83;;;;;;;4.06;57.62;96184.31;5116370;28;20190;-76
2024/01/28 11:36:38;;;;;;;4.20;3.50;;;;;;;4.00;57.78;96193.66;5116314;28;20184;-76
2024/01/28 11:39:06;;;;;;;4.10;3.70;;;;;;;3.98;57.80;96191.19;5099126;28;20244;-76
2024/01/28 11:41:38;;;;;;;4.20;3.80;;;;;;;4.01;57.95;96189.81;5098868;28;20196;-76
2024/01/28 11:44:08;;;;;;;4.40;3.92;;;;;;;4.00;58.67;96190.94;5116205;28;20179;-76
2024/01/28 11:46:36;;;;;;;5.20;4.15;;;;;;;4.01;58.75;96192.56;5116557;28;20192;-76